createdAt,value
2022-11-04T00:02:15.778Z,0.98
2022-11-04T00:04:46.095Z,1.15
2022-11-04T00:07:28.558Z,0.98
2022-11-04T00:09:57.387Z,0.73
2022-11-04T00:12:27.667Z,0.88
2022-11-04T00:15:18.659Z,0.69
2022-11-04T00:17:46.468Z,0.91
2022-11-04T00:20:33.920Z,0.85
2022-11-04T00:23:20.171Z,1.13
2022-11-04T00:26:06.133Z,1.42
2022-11-04T00:28:47.223Z,1.39
2022-11-04T00:31:33.350Z,1.34
2022-11-04T00:34:02.000Z,1.30
2022-11-04T00:36:31.894Z,1.36
2022-11-04T00:39:00.461Z,1.37
2022-11-04T00:41:30.183Z,1.29
2022-11-04T00:44:00.359Z,0.98
2022-11-04T00:46:30.125Z,1.08
2022-11-04T00:48:59.741Z,1.03
2022-11-04T00:51:28.285Z,1.05
2022-11-04T00:53:58.815Z,1.20
2022-11-04T00:56:27.833Z,1.33
2022-11-04T00:58:56.516Z,1.32
2022-11-04T01:01:24.953Z,1.39
2022-11-04T01:03:54.938Z,1.28
2022-11-04T01:06:25.642Z,1.55
2022-11-04T01:08:59.476Z,1.16
2022-11-04T01:11:29.704Z,1.32
2022-11-04T01:13:58.836Z,1.63
2022-11-04T01:19:02.733Z,1.46
2022-11-04T01:21:31.457Z,1.13
2022-11-04T01:24:01.726Z,1.19
2022-11-04T01:26:31.115Z,1.45
2022-11-04T01:29:00.472Z,1.16
2022-11-04T01:31:31.246Z,1.41
2022-11-04T01:34:00.457Z,1.51
2022-11-04T01:36:29.342Z,1.12
2022-11-04T01:38:58.305Z,0.85
2022-11-04T01:41:30.729Z,0.79
2022-11-04T01:44:01.151Z,0.74
2022-11-04T01:46:36.830Z,0.68
2022-11-04T01:49:20.218Z,0.91
2022-11-04T01:51:50.907Z,0.84
2022-11-04T01:54:19.997Z,1.16
2022-11-04T01:56:51.084Z,0.89
2022-11-04T01:59:25.765Z,0.98
2022-11-04T02:01:54.464Z,0.99
2022-11-04T02:04:27.697Z,1.30
2022-11-04T02:06:58.701Z,1.42
2022-11-04T02:09:30.010Z,1.15
2022-11-04T02:12:17.503Z,1.11
2022-11-04T02:14:48.459Z,1.14
2022-11-04T02:17:30.675Z,0.95
2022-11-04T02:20:23.765Z,1.15
2022-11-04T02:23:27.873Z,0.97
2022-11-04T02:26:20.225Z,1.13
2022-11-04T02:29:25.212Z,1.12
2022-11-04T02:32:01.816Z,0.79
2022-11-04T02:34:37.958Z,0.50
2022-11-04T02:37:14.971Z,1.04
2022-11-04T02:39:52.843Z,1.34
2022-11-04T02:42:29.256Z,1.17
2022-11-04T02:45:12.238Z,1.10
2022-11-04T02:47:46.037Z,0.90
2022-11-04T02:50:22.431Z,0.71
2022-11-04T02:52:58.635Z,0.52
2022-11-04T02:55:48.477Z,0.50
2022-11-04T02:58:22.767Z,0.80
2022-11-04T03:00:56.234Z,0.51
2022-11-04T03:03:27.740Z,0.39
2022-11-04T03:05:59.014Z,0.72
2022-11-04T03:08:34.458Z,0.41
2022-11-04T03:11:10.210Z,0.56
2022-11-04T03:13:43.625Z,0.79
2022-11-04T03:16:18.204Z,0.84
2022-11-04T03:18:59.289Z,0.94
2022-11-04T03:21:30.436Z,1.03
2022-11-04T03:23:58.991Z,0.87
2022-11-04T03:26:32.696Z,0.53
2022-11-04T03:29:27.592Z,0.73
2022-11-04T03:32:10.120Z,1.16
2022-11-04T03:34:39.704Z,1.38
2022-11-04T03:37:08.280Z,1.32
2022-11-04T03:39:36.743Z,1.38
2022-11-04T03:42:20.659Z,0.85
2022-11-04T03:44:52.370Z,1.17
2022-11-04T03:47:24.682Z,1.20
2022-11-04T03:49:59.077Z,1.38
2022-11-04T03:52:27.815Z,1.01
2022-11-04T03:54:55.994Z,0.81
2022-11-04T03:57:39.663Z,0.55
2022-11-04T04:00:12.607Z,0.68
2022-11-04T04:02:59.732Z,0.88
2022-11-04T04:05:31.124Z,0.93
2022-11-04T04:08:13.634Z,0.89
2022-11-04T04:10:50.299Z,1.23
2022-11-04T04:13:30.153Z,1.00
2022-11-04T04:16:03.941Z,0.70
2022-11-04T04:18:40.231Z,1.24
2022-11-04T04:21:15.175Z,1.48
2022-11-04T04:24:02.784Z,1.37
2022-11-04T04:26:54.522Z,1.42
2022-11-04T04:29:25.810Z,1.42
2022-11-04T04:31:58.055Z,1.42
2022-11-04T04:34:35.952Z,1.40
2022-11-04T04:37:09.280Z,1.30
2022-11-04T04:40:00.908Z,1.33
2022-11-04T04:42:51.040Z,1.28
2022-11-04T04:45:23.478Z,1.27
2022-11-04T04:47:53.287Z,1.31
2022-11-04T04:50:23.971Z,1.28
2022-11-04T04:52:56.142Z,1.29
2022-11-04T04:55:24.770Z,1.16
2022-11-04T04:57:53.358Z,1.03
2022-11-04T05:00:22.913Z,1.17
2022-11-04T05:02:51.796Z,1.30
2022-11-04T05:05:20.978Z,1.36
2022-11-04T05:07:50.904Z,1.10
2022-11-04T05:10:20.106Z,1.19
2022-11-04T05:13:06.206Z,1.33
2022-11-04T05:15:35.750Z,1.05
2022-11-04T05:18:04.735Z,1.28
2022-11-04T05:20:34.469Z,1.39
2022-11-04T05:23:04.581Z,1.45
2022-11-04T05:25:33.117Z,1.36
2022-11-04T05:28:02.875Z,1.22
2022-11-04T05:30:31.243Z,1.35
2022-11-04T05:33:03.442Z,1.51
2022-11-04T05:35:34.617Z,1.45
2022-11-04T05:38:04.495Z,1.48
2022-11-04T05:40:32.961Z,1.48
2022-11-04T05:43:02.367Z,1.57
2022-11-04T05:45:31.106Z,1.25
2022-11-04T05:48:03.340Z,1.58
2022-11-04T05:50:34.353Z,1.46
2022-11-04T05:53:07.127Z,1.24
2022-11-04T05:56:40.348Z,1.63
2022-11-04T06:02:52.545Z,1.77
2022-11-04T06:05:21.014Z,1.55
2022-11-04T06:07:49.431Z,1.34
2022-11-04T06:10:19.260Z,1.71
2022-11-04T06:12:47.791Z,2.06
2022-11-04T06:15:16.473Z,1.94
2022-11-04T06:17:44.644Z,2.24
2022-11-04T06:20:16.618Z,2.01
2022-11-04T06:23:07.151Z,1.88
2022-11-04T06:25:37.619Z,1.66
2022-11-04T06:28:06.991Z,2.01
2022-11-04T06:30:38.703Z,1.96
2022-11-04T06:33:19.549Z,1.74
2022-11-04T06:35:52.786Z,1.61
2022-11-04T06:38:24.999Z,1.78
2022-11-04T06:40:55.384Z,2.22
2022-11-04T06:43:27.246Z,2.53
2022-11-04T06:45:56.211Z,2.26
2022-11-04T06:48:25.390Z,2.17
2022-11-04T06:50:54.171Z,2.26
2022-11-04T06:53:22.831Z,1.93
2022-11-04T06:55:51.187Z,2.18
2022-11-04T06:58:21.333Z,2.01
2022-11-04T07:00:55.996Z,1.85
2022-11-04T07:03:26.082Z,1.54
2022-11-04T07:05:55.225Z,1.48
2022-11-04T07:08:23.606Z,2.07
2022-11-04T07:10:52.291Z,2.04
2022-11-04T07:13:22.197Z,1.73
2022-11-04T07:15:51.058Z,0.87
2022-11-04T07:18:20.141Z,1.17
2022-11-04T07:20:48.981Z,1.58
2022-11-04T07:23:17.304Z,1.63
2022-11-04T07:25:48.522Z,1.64
2022-11-04T07:28:19.546Z,1.80
2022-11-04T07:30:49.525Z,1.60
2022-11-04T07:33:18.395Z,1.57
2022-11-04T07:35:47.100Z,1.73
2022-11-04T07:38:15.731Z,1.95
2022-11-04T07:40:44.419Z,1.75
2022-11-04T07:43:12.773Z,1.86
2022-11-04T07:45:41.432Z,1.78
2022-11-04T07:48:14.598Z,1.87
2022-11-04T07:50:43.304Z,1.90
2022-11-04T07:53:12.510Z,2.33
2022-11-04T07:55:43.528Z,2.52
2022-11-04T07:58:13.014Z,2.23
2022-11-04T08:00:41.831Z,2.02
2022-11-04T08:03:11.386Z,2.17
2022-11-04T08:05:41.823Z,1.95
2022-11-04T08:08:10.385Z,1.95
2022-11-04T08:10:38.939Z,2.06
2022-11-04T08:13:13.251Z,2.08
2022-11-04T08:15:42.046Z,2.21
2022-11-04T08:18:16.477Z,2.54
2022-11-04T08:20:50.859Z,2.26
2022-11-04T08:23:20.049Z,2.44
2022-11-04T08:25:49.035Z,2.18
2022-11-04T08:28:18.490Z,2.40
2022-11-04T08:30:57.557Z,2.64
2022-11-04T08:33:26.923Z,2.25
2022-11-04T08:36:00.337Z,1.94
2022-11-04T08:38:29.173Z,2.20
2022-11-04T08:41:01.092Z,1.83
2022-11-04T08:43:29.954Z,2.23
2022-11-04T08:45:58.749Z,2.30
2022-11-04T08:48:28.368Z,2.39
2022-11-04T08:51:00.331Z,2.18
2022-11-04T08:53:29.145Z,2.24
2022-11-04T08:55:58.097Z,2.90
2022-11-04T08:58:26.835Z,2.72
2022-11-04T09:00:55.332Z,2.76
2022-11-04T09:03:23.551Z,2.54
2022-11-04T09:05:52.452Z,2.34
2022-11-04T09:08:24.914Z,2.48
2022-11-04T09:10:53.484Z,2.73
2022-11-04T09:13:21.911Z,2.86
2022-11-04T09:15:50.590Z,2.86
2022-11-04T09:18:19.035Z,3.07
2022-11-04T09:20:47.538Z,2.94
2022-11-04T09:23:16.234Z,2.70
2022-11-04T09:25:46.369Z,2.36
2022-11-04T09:28:14.889Z,2.60
2022-11-04T09:30:43.322Z,2.21
2022-11-04T09:33:12.179Z,2.32
2022-11-04T09:35:43.884Z,2.64
2022-11-04T09:38:15.125Z,2.62
2022-11-04T09:40:43.665Z,2.97
2022-11-04T09:43:34.453Z,2.07
2022-11-04T09:46:04.420Z,2.29
2022-11-04T09:48:38.688Z,2.24
2022-11-04T09:51:20.817Z,2.42
2022-11-04T09:54:01.551Z,2.29
2022-11-04T09:56:35.039Z,2.88
2022-11-04T09:59:06.872Z,2.77
2022-11-04T10:01:44.063Z,2.53
2022-11-04T10:04:22.367Z,2.31
2022-11-04T10:07:06.239Z,2.48
2022-11-04T10:09:47.887Z,2.35
2022-11-04T10:12:25.799Z,2.93
2022-11-04T10:15:14.686Z,2.62
2022-11-04T10:18:04.462Z,2.23
2022-11-04T10:20:48.738Z,2.98
2022-11-04T10:23:23.313Z,3.10
2022-11-04T10:26:02.557Z,3.69
2022-11-04T10:29:02.239Z,3.33
2022-11-04T10:31:59.791Z,3.28
2022-11-04T10:34:38.808Z,2.92
2022-11-04T10:37:12.316Z,2.75
2022-11-04T10:39:45.629Z,2.79
2022-11-04T10:42:17.375Z,2.66
2022-11-04T10:44:47.984Z,3.08
2022-11-04T10:47:28.456Z,2.70
2022-11-04T10:50:31.894Z,2.49
2022-11-04T10:53:59.323Z,2.52
2022-11-04T10:57:18.543Z,2.85
2022-11-04T11:00:36.885Z,3.01
2022-11-04T11:03:59.641Z,2.73
2022-11-04T11:06:30.921Z,3.44
2022-11-04T11:09:01.495Z,3.19
2022-11-04T11:11:39.243Z,2.77
2022-11-04T11:14:18.133Z,2.49
2022-11-04T11:16:48.315Z,2.54
2022-11-04T11:19:21.729Z,2.64
2022-11-04T11:21:51.330Z,2.83
2022-11-04T11:24:24.620Z,2.26
2022-11-04T11:26:55.068Z,2.62
2022-11-04T11:29:30.958Z,2.78
2022-11-04T11:32:02.052Z,3.06
2022-11-04T11:34:34.753Z,2.79
2022-11-04T11:37:05.330Z,3.27
2022-11-04T11:39:36.073Z,3.41
2022-11-04T11:42:08.274Z,3.13
2022-11-04T11:44:44.481Z,3.13
2022-11-04T11:47:22.912Z,3.20
2022-11-04T11:50:15.733Z,2.89
2022-11-04T11:52:45.252Z,2.76
2022-11-04T11:55:19.783Z,2.93
2022-11-04T12:00:58.160Z,2.60
2022-11-04T12:09:43.628Z,2.79
2022-11-04T12:12:23.706Z,2.86
2022-11-04T12:15:07.219Z,2.99
2022-11-04T12:17:49.345Z,2.82
2022-11-04T12:20:27.346Z,2.73
2022-11-04T12:23:06.482Z,3.03
2022-11-04T12:25:46.591Z,3.39
2022-11-04T12:28:28.797Z,3.64
2022-11-04T12:31:12.828Z,3.23
2022-11-04T12:33:48.523Z,3.10
2022-11-04T12:36:32.017Z,3.13
2022-11-04T12:39:16.502Z,3.14
2022-11-04T12:44:54.158Z,3.16
2022-11-04T12:47:35.245Z,3.40
2022-11-04T12:50:29.235Z,3.42
2022-11-04T12:53:11.769Z,3.48
2022-11-04T12:55:51.246Z,3.26
2022-11-04T12:58:34.174Z,3.39
2022-11-04T13:01:31.753Z,3.37
2022-11-04T13:04:08.502Z,3.04
2022-11-04T13:06:44.427Z,3.08
2022-11-04T13:09:16.826Z,3.03
2022-11-04T13:11:53.704Z,2.98
2022-11-04T13:14:29.631Z,2.87
2022-11-04T13:17:01.631Z,2.96
2022-11-04T13:20:20.438Z,3.13
2022-11-04T13:22:51.591Z,3.14
2022-11-04T13:25:29.499Z,3.12
2022-11-04T13:28:03.466Z,3.02
2022-11-04T13:30:49.050Z,3.02
2022-11-04T13:33:25.834Z,3.33
2022-11-04T13:36:18.190Z,3.35
2022-11-04T13:39:10.145Z,3.24
2022-11-04T13:42:52.267Z,3.09
2022-11-04T13:46:32.319Z,2.73
2022-11-04T13:49:34.095Z,2.88
2022-11-04T13:52:08.785Z,2.69
2022-11-04T13:55:02.924Z,2.79
2022-11-04T13:57:34.843Z,3.30
2022-11-04T14:00:28.276Z,3.43
2022-11-04T14:03:02.641Z,3.36
2022-11-04T14:06:02.269Z,2.99
2022-11-04T14:08:31.461Z,3.13
2022-11-04T14:11:10.408Z,2.73
2022-11-04T14:14:23.644Z,2.52
2022-11-04T14:17:50.378Z,2.74
2022-11-04T14:20:27.633Z,2.70
2022-11-04T14:23:02.675Z,2.66
2022-11-04T14:25:44.357Z,2.74
2022-11-04T14:28:28.782Z,2.94
2022-11-04T14:32:00.886Z,2.94
2022-11-04T14:34:34.387Z,2.94
2022-11-04T14:37:09.923Z,3.00
2022-11-04T14:39:59.250Z,3.25
2022-11-04T14:42:47.962Z,3.21
2022-11-04T14:45:20.482Z,3.07
2022-11-04T14:47:54.705Z,2.71
2022-11-04T14:50:27.480Z,2.91
2022-11-04T14:52:59.634Z,3.09
2022-11-04T14:55:30.047Z,3.03
2022-11-04T14:58:01.461Z,3.30
2022-11-04T15:00:35.955Z,3.15
2022-11-04T15:03:52.040Z,2.77
2022-11-04T15:06:08.784Z,2.96
2022-11-04T15:08:45.998Z,2.72
2022-11-04T15:11:17.716Z,2.95
2022-11-04T15:13:49.057Z,3.09
2022-11-04T15:16:23.716Z,2.90
2022-11-04T15:18:53.622Z,3.02
2022-11-04T15:21:22.692Z,3.00
2022-11-04T15:23:55.564Z,2.82
2022-11-04T15:26:30.104Z,2.78
2022-11-04T15:29:01.505Z,2.94
2022-11-04T15:31:32.335Z,3.05
2022-11-04T15:34:05.899Z,2.95
2022-11-04T15:36:38.647Z,2.98
2022-11-04T15:39:15.578Z,2.77
2022-11-04T15:42:04.247Z,2.76
2022-11-04T15:44:35.056Z,2.91
2022-11-04T15:47:10.206Z,2.80
2022-11-04T15:49:41.607Z,2.87
2022-11-04T15:52:19.399Z,2.74
2022-11-04T15:54:56.579Z,2.49
2022-11-04T15:57:27.361Z,2.77
2022-11-04T16:00:01.575Z,2.64
2022-11-04T16:02:47.342Z,2.64
2022-11-04T16:05:29.264Z,2.37
2022-11-04T16:08:20.067Z,2.83
2022-11-04T16:10:52.302Z,2.80
2022-11-04T16:13:25.945Z,2.73
2022-11-04T16:16:09.557Z,2.88
2022-11-04T16:18:40.953Z,2.86
2022-11-04T16:21:12.766Z,3.02
2022-11-04T16:23:49.037Z,2.67
2022-11-04T16:26:26.123Z,2.52
2022-11-04T16:29:03.289Z,2.41
2022-11-04T16:31:35.602Z,2.81
2022-11-04T16:34:25.103Z,2.86
2022-11-04T16:36:59.473Z,2.61
2022-11-04T16:39:28.193Z,2.71
2022-11-04T16:41:58.700Z,2.52
2022-11-04T16:44:30.331Z,2.74
2022-11-04T16:46:59.265Z,2.64
2022-11-04T16:49:30.497Z,2.86
2022-11-04T16:52:03.908Z,2.99
2022-11-04T16:54:34.421Z,3.01
2022-11-04T16:57:08.394Z,2.59
2022-11-04T16:59:47.244Z,2.75
2022-11-04T17:02:21.238Z,2.70
2022-11-04T17:05:30.979Z,2.54
2022-11-04T17:08:04.750Z,2.56
2022-11-04T17:11:08.141Z,2.49
2022-11-04T17:13:39.644Z,2.63
2022-11-04T17:18:57.969Z,2.79
2022-11-04T17:21:26.624Z,2.70
2022-11-04T17:23:56.471Z,3.09
2022-11-04T17:26:28.372Z,3.02
2022-11-04T17:29:17.130Z,2.64
2022-11-04T17:31:46.855Z,2.60
2022-11-04T17:34:15.836Z,2.28
2022-11-04T17:36:44.448Z,2.57
2022-11-04T17:39:12.852Z,2.62
2022-11-04T17:41:59.557Z,2.93
2022-11-04T17:44:32.214Z,2.48
2022-11-04T17:47:04.055Z,2.93
2022-11-04T17:49:32.684Z,2.69
2022-11-04T17:52:05.481Z,2.98
2022-11-04T17:54:59.649Z,2.20
2022-11-04T17:57:39.756Z,2.56
2022-11-04T18:00:14.401Z,2.60
2022-11-04T18:02:43.532Z,2.63
2022-11-04T18:05:12.318Z,2.93
2022-11-04T18:07:50.092Z,2.81
2022-11-04T18:10:22.665Z,2.54
2022-11-04T18:12:54.692Z,2.53
2022-11-04T18:15:28.517Z,2.73
2022-11-04T18:17:57.523Z,3.00
2022-11-04T18:20:25.978Z,2.48
2022-11-04T18:22:54.676Z,2.96
2022-11-04T18:25:22.919Z,2.47
2022-11-04T18:27:51.519Z,2.27
2022-11-04T18:30:19.674Z,2.58
2022-11-04T18:32:49.700Z,3.38
2022-11-04T18:35:19.896Z,3.55
2022-11-04T18:37:48.766Z,3.61
2022-11-04T18:40:18.225Z,2.84
2022-11-04T18:42:47.225Z,2.72
2022-11-04T18:45:16.061Z,2.99
2022-11-04T18:47:44.707Z,3.17
2022-11-04T18:50:14.917Z,3.14
2022-11-04T18:52:43.574Z,2.90
2022-11-04T18:55:12.801Z,2.93
2022-11-04T18:57:41.556Z,3.06
2022-11-04T19:00:16.723Z,3.00
2022-11-04T19:02:45.946Z,2.90
2022-11-04T19:05:15.742Z,3.08
2022-11-04T19:07:44.512Z,3.13
2022-11-04T19:10:14.791Z,2.89
2022-11-04T19:13:00.964Z,3.00
2022-11-04T19:15:30.403Z,3.23
2022-11-04T19:18:02.766Z,2.89
2022-11-04T19:20:33.493Z,3.16
2022-11-04T19:23:02.027Z,2.94
2022-11-04T19:25:30.578Z,3.14
2022-11-04T19:28:26.655Z,3.21
2022-11-04T19:30:57.696Z,3.14
2022-11-04T19:33:26.213Z,3.19
2022-11-04T19:35:56.453Z,3.09
2022-11-04T19:38:25.149Z,2.92
2022-11-04T19:40:53.834Z,2.93
2022-11-04T19:43:21.333Z,2.95
2022-11-04T19:45:51.411Z,2.65
2022-11-04T19:48:20.703Z,2.96
2022-11-04T19:50:50.585Z,2.68
2022-11-04T19:53:20.625Z,2.98
2022-11-04T19:55:51.549Z,2.92
2022-11-04T19:58:20.443Z,2.90
2022-11-04T20:00:49.280Z,2.67
2022-11-04T20:03:17.879Z,2.70
2022-11-04T20:05:46.810Z,2.75
2022-11-04T20:08:15.321Z,2.67
2022-11-04T20:10:45.297Z,2.57
2022-11-04T20:13:33.922Z,2.67
2022-11-04T20:16:03.245Z,2.97
2022-11-04T20:18:31.671Z,3.27
2022-11-04T20:21:00.159Z,2.62
2022-11-04T20:23:28.618Z,2.63
2022-11-04T20:26:06.387Z,2.61
2022-11-04T20:28:34.906Z,2.59
2022-11-04T20:31:03.822Z,2.94
2022-11-04T20:33:32.310Z,2.86
2022-11-04T20:36:03.127Z,2.96
2022-11-04T20:38:31.631Z,2.73
2022-11-04T20:41:05.886Z,2.62
2022-11-04T20:43:35.231Z,2.72
2022-11-04T20:46:06.137Z,2.71
2022-11-04T20:48:36.211Z,2.70
2022-11-04T20:51:09.086Z,2.25
2022-11-04T20:53:38.334Z,2.33
2022-11-04T20:56:12.233Z,2.64
2022-11-04T20:58:43.403Z,2.64
2022-11-04T21:01:14.147Z,2.50
2022-11-04T21:03:43.854Z,2.52
2022-11-04T21:06:12.410Z,2.67
2022-11-04T21:08:41.216Z,2.88
2022-11-04T21:11:11.233Z,2.70
2022-11-04T21:13:39.769Z,2.88
2022-11-04T21:16:08.822Z,2.71
2022-11-04T21:18:37.809Z,2.62
2022-11-04T21:21:09.285Z,2.66
2022-11-04T21:23:41.373Z,2.63
2022-11-04T21:26:15.225Z,2.49
2022-11-04T21:28:43.849Z,2.60
2022-11-04T21:31:15.607Z,2.72
2022-11-04T21:33:44.128Z,2.82
2022-11-04T21:36:16.533Z,2.17
2022-11-04T21:38:45.356Z,2.54
2022-11-04T21:41:16.434Z,2.88
2022-11-04T21:43:45.431Z,2.63
2022-11-04T21:46:16.384Z,2.82
2022-11-04T21:48:45.007Z,2.47
2022-11-04T21:51:16.374Z,2.75
2022-11-04T21:53:45.324Z,2.84
2022-11-04T21:56:19.372Z,2.65
2022-11-04T21:58:49.142Z,2.87
2022-11-04T22:01:20.737Z,3.23
2022-11-04T22:03:53.451Z,3.04
2022-11-04T22:06:22.283Z,2.80
2022-11-04T22:08:53.949Z,3.11
2022-11-04T22:11:28.055Z,2.87
2022-11-04T22:14:01.837Z,3.27
2022-11-04T22:16:32.743Z,3.22
2022-11-04T22:19:03.140Z,3.07
2022-11-04T22:21:33.173Z,3.20
2022-11-04T22:24:02.362Z,3.16
2022-11-04T22:26:33.697Z,3.12
2022-11-04T22:29:02.830Z,3.02
2022-11-04T22:31:32.670Z,2.78
2022-11-04T22:34:02.091Z,3.03
2022-11-04T22:36:32.007Z,3.03
2022-11-04T22:39:00.949Z,2.81
2022-11-04T22:41:33.349Z,2.79
2022-11-04T22:44:03.396Z,2.47
2022-11-04T22:46:33.179Z,2.85
2022-11-04T22:49:01.737Z,2.86
2022-11-04T22:51:31.437Z,2.72
2022-11-04T22:54:06.415Z,2.91
2022-11-04T22:56:38.107Z,2.58
2022-11-04T22:59:08.038Z,2.62
2022-11-04T23:01:37.233Z,2.71
2022-11-04T23:04:06.645Z,2.49
2022-11-04T23:06:35.094Z,2.47
2022-11-04T23:09:03.469Z,2.42
2022-11-04T23:11:50.325Z,2.41
2022-11-04T23:14:39.630Z,2.58
2022-11-04T23:17:34.316Z,2.44
2022-11-04T23:20:07.202Z,2.91
2022-11-04T23:23:04.804Z,2.90
2022-11-04T23:25:33.504Z,2.70
2022-11-04T23:28:19.251Z,3.03
2022-11-04T23:30:54.034Z,2.65
2022-11-04T23:33:42.978Z,2.62
2022-11-04T23:36:28.963Z,2.72
2022-11-04T23:38:57.449Z,2.65
2022-11-04T23:41:54.578Z,3.05
2022-11-04T23:44:40.400Z,2.75
2022-11-04T23:47:27.796Z,2.62
2022-11-04T23:50:13.501Z,2.82
2022-11-04T23:52:59.541Z,2.83
2022-11-04T23:55:45.172Z,3.24
2022-11-04T23:58:30.735Z,2.79
